createdAt,value
2023-05-05T00:00:01.099Z,66.53
2023-05-05T00:02:31.058Z,66.88
2023-05-05T00:05:03.605Z,66.96
2023-05-05T00:07:33.388Z,67.53
2023-05-05T00:10:03.196Z,67.19
2023-05-05T00:12:33.115Z,67.38
2023-05-05T00:15:03.030Z,67.38
2023-05-05T00:17:32.862Z,68.44
2023-05-05T00:20:05.577Z,68.71
2023-05-05T00:22:36.478Z,68.81
2023-05-05T00:25:07.311Z,69.24
2023-05-05T00:27:38.882Z,68.92
2023-05-05T00:30:10.864Z,69.37
2023-05-05T00:32:40.734Z,69.08
2023-05-05T00:35:13.470Z,68.93
2023-05-05T00:37:43.442Z,69.30
2023-05-05T00:40:14.294Z,69.20
2023-05-05T00:42:44.866Z,69.54
2023-05-05T00:45:15.806Z,69.49
2023-05-05T00:47:48.019Z,69.81
2023-05-05T00:50:26.586Z,69.24
2023-05-05T00:52:57.997Z,69.30
2023-05-05T00:55:28.076Z,69.39
2023-05-05T00:57:59.629Z,69.07
2023-05-05T01:00:30.230Z,70.09
2023-05-05T01:03:00.981Z,70.27
2023-05-05T01:05:41.872Z,70.30
2023-05-05T01:08:29.755Z,70.31
2023-05-05T01:11:07.995Z,69.98
2023-05-05T01:13:46.289Z,69.89
2023-05-05T01:16:22.283Z,69.78
2023-05-05T01:19:01.190Z,69.75
2023-05-05T01:21:41.503Z,69.73
2023-05-05T01:24:29.413Z,69.59
2023-05-05T01:27:14.334Z,69.51
2023-05-05T01:30:04.115Z,69.61
2023-05-05T01:32:41.521Z,69.98
2023-05-05T01:35:18.965Z,69.92
2023-05-05T01:37:53.530Z,70.06
2023-05-05T01:40:28.345Z,69.88
2023-05-05T01:43:00.041Z,70.10
2023-05-05T01:45:35.105Z,70.21
2023-05-05T01:48:09.742Z,70.50
2023-05-05T01:50:40.239Z,70.62
2023-05-05T01:53:11.921Z,71.15
2023-05-05T01:55:42.713Z,71.30
2023-05-05T01:58:13.868Z,71.26
2023-05-05T02:00:45.305Z,71.17
2023-05-05T02:03:19.579Z,71.19
2023-05-05T02:05:51.367Z,71.62
2023-05-05T02:08:22.566Z,71.45
2023-05-05T02:10:54.724Z,72.17
2023-05-05T02:13:26.272Z,72.21
2023-05-05T02:15:57.763Z,72.56
2023-05-05T02:18:31.078Z,72.23
2023-05-05T02:21:00.898Z,72.58
2023-05-05T02:23:30.968Z,72.55
2023-05-05T02:26:07.605Z,72.49
2023-05-05T02:28:43.832Z,73.00
2023-05-05T02:31:16.668Z,73.38
2023-05-05T02:33:52.204Z,73.93
2023-05-05T02:36:25.632Z,74.18
2023-05-05T02:39:05.750Z,74.74
2023-05-05T02:41:41.830Z,74.34
2023-05-05T02:44:22.734Z,74.28
2023-05-05T02:46:52.693Z,74.17
2023-05-05T02:49:25.354Z,74.71
2023-05-05T02:52:01.154Z,74.15
2023-05-05T02:54:36.366Z,74.29
2023-05-05T02:57:14.363Z,73.56
2023-05-05T02:59:52.976Z,73.49
2023-05-05T03:02:30.851Z,73.72
2023-05-05T03:05:09.572Z,73.92
2023-05-05T03:07:51.585Z,74.20
2023-05-05T03:10:24.561Z,73.70
2023-05-05T03:12:57.984Z,73.75
2023-05-05T03:15:41.132Z,73.17
2023-05-05T03:18:13.397Z,73.16
2023-05-05T03:20:49.754Z,72.99
2023-05-05T03:23:22.995Z,72.86
2023-05-05T03:25:57.945Z,73.09
2023-05-05T03:28:37.538Z,72.82
2023-05-05T03:31:15.495Z,73.17
2023-05-05T03:33:45.480Z,73.77
2023-05-05T03:36:17.937Z,73.29
2023-05-05T03:38:47.777Z,73.94
2023-05-05T03:41:17.829Z,73.59
2023-05-05T03:43:47.661Z,73.49
2023-05-05T03:46:17.668Z,73.32
2023-05-05T03:48:48.625Z,73.23
2023-05-05T03:51:21.418Z,73.26
2023-05-05T03:53:51.405Z,72.93
2023-05-05T03:56:21.430Z,73.27
2023-05-05T03:58:51.285Z,73.68
2023-05-05T04:01:21.521Z,73.52
2023-05-05T04:03:51.426Z,74.00
2023-05-05T04:06:24.411Z,74.36
2023-05-05T04:08:54.163Z,74.30
2023-05-05T04:11:24.064Z,74.58
2023-05-05T04:13:54.077Z,74.49
2023-05-05T04:16:24.515Z,74.61
2023-05-05T04:18:55.467Z,74.84
2023-05-05T04:21:28.058Z,74.74
2023-05-05T04:23:58.965Z,74.85
2023-05-05T04:26:29.332Z,74.82
2023-05-05T04:28:59.211Z,74.20
2023-05-05T04:31:29.132Z,74.48
2023-05-05T04:33:59.012Z,74.21
2023-05-05T04:36:31.439Z,74.71
2023-05-05T04:39:01.290Z,74.56
2023-05-05T04:41:31.196Z,74.35
2023-05-05T04:44:01.219Z,74.02
2023-05-05T04:46:31.276Z,73.97
2023-05-05T04:49:03.552Z,73.56
2023-05-05T04:51:36.277Z,73.69
2023-05-05T04:54:06.260Z,73.89
2023-05-05T04:56:36.071Z,73.55
2023-05-05T04:59:06.173Z,73.78
2023-05-05T05:01:38.429Z,73.48
2023-05-05T05:04:08.525Z,73.93
2023-05-05T05:06:41.246Z,73.66
2023-05-05T05:09:10.978Z,73.70
2023-05-05T05:11:40.772Z,74.03
2023-05-05T05:14:10.886Z,74.55
2023-05-05T05:16:41.047Z,74.96
2023-05-05T05:19:10.876Z,74.60
2023-05-05T05:21:43.510Z,74.21
2023-05-05T05:24:13.671Z,74.32
2023-05-05T05:26:43.509Z,74.06
2023-05-05T05:29:13.362Z,73.79
2023-05-05T05:31:43.284Z,73.46
2023-05-05T05:34:13.123Z,73.16
2023-05-05T05:36:46.692Z,72.04
2023-05-05T05:39:16.495Z,73.04
2023-05-05T05:41:46.331Z,73.30
2023-05-05T05:44:16.460Z,73.07
2023-05-05T05:46:46.275Z,73.02
2023-05-05T05:49:17.101Z,71.74
2023-05-05T05:51:49.489Z,71.24
2023-05-05T05:54:20.198Z,71.72
2023-05-05T05:56:50.138Z,71.85
2023-05-05T05:59:20.041Z,71.81
2023-05-05T06:01:50.025Z,71.37
2023-05-05T06:04:19.989Z,71.83
2023-05-05T06:06:52.591Z,71.23
2023-05-05T06:09:22.779Z,70.35
2023-05-05T06:11:52.874Z,69.51
2023-05-05T06:14:22.684Z,69.72
2023-05-05T06:16:52.931Z,69.09
2023-05-05T06:19:25.061Z,69.13
2023-05-05T06:21:57.448Z,69.14
2023-05-05T06:24:27.266Z,68.87
2023-05-05T06:26:57.984Z,69.29
2023-05-05T06:29:28.788Z,69.65
2023-05-05T06:31:58.580Z,69.53
2023-05-05T06:34:28.393Z,70.13
2023-05-05T06:37:00.752Z,69.89
2023-05-05T06:39:30.946Z,69.69
2023-05-05T06:42:00.737Z,70.42
2023-05-05T06:44:31.245Z,70.68
2023-05-05T06:47:01.059Z,70.27
2023-05-05T06:49:30.949Z,70.67
2023-05-05T06:52:03.308Z,71.58
2023-05-05T06:54:33.073Z,71.85
2023-05-05T06:57:02.822Z,72.17
2023-05-05T06:59:32.668Z,72.22
2023-05-05T07:02:02.435Z,72.27
2023-05-05T07:04:32.188Z,72.75
2023-05-05T07:07:04.545Z,71.65
2023-05-05T07:09:34.278Z,72.06
2023-05-05T07:12:04.032Z,71.24
2023-05-05T07:14:33.770Z,70.14
2023-05-05T07:17:03.551Z,69.89
2023-05-05T07:19:33.614Z,69.83
2023-05-05T07:22:06.071Z,69.65
2023-05-05T07:24:35.809Z,69.63
2023-05-05T07:27:05.653Z,69.56
2023-05-05T07:29:35.559Z,69.68
2023-05-05T07:32:05.377Z,68.68
2023-05-05T07:34:38.100Z,68.28
2023-05-05T07:37:10.821Z,68.06
2023-05-05T07:39:40.575Z,68.38
2023-05-05T07:42:10.953Z,69.50
2023-05-05T07:44:40.768Z,70.06
2023-05-05T07:47:10.608Z,70.75
2023-05-05T07:49:40.365Z,71.86
2023-05-05T07:52:12.692Z,72.06
2023-05-05T07:54:42.597Z,73.72
2023-05-05T07:57:12.342Z,75.37
2023-05-05T07:59:43.806Z,76.83
2023-05-05T08:02:13.861Z,77.55
2023-05-05T08:04:44.435Z,78.91
2023-05-05T08:07:16.785Z,79.93
2023-05-05T08:09:46.531Z,80.54
2023-05-05T08:12:19.209Z,80.88
2023-05-05T08:14:48.938Z,81.14
2023-05-05T08:17:18.814Z,80.39
2023-05-05T08:19:48.578Z,82.72
2023-05-05T08:22:20.977Z,83.34
2023-05-05T08:24:51.097Z,83.86
2023-05-05T08:27:20.850Z,83.23
2023-05-05T08:29:50.601Z,84.02
2023-05-05T08:32:20.403Z,82.66
2023-05-05T08:34:50.140Z,82.91
2023-05-05T08:37:22.624Z,82.18
2023-05-05T08:39:52.520Z,81.56
2023-05-05T08:42:35.620Z,81.52
2023-05-05T08:45:07.455Z,80.62
2023-05-05T08:47:38.220Z,79.88
2023-05-05T08:50:09.258Z,80.88
2023-05-05T08:52:44.907Z,79.43
2023-05-05T08:55:24.312Z,79.46
2023-05-05T08:57:56.629Z,78.81
2023-05-05T09:00:27.451Z,79.11
2023-05-05T09:02:59.642Z,79.06
2023-05-05T09:05:30.028Z,77.22
2023-05-05T09:08:02.385Z,78.16
2023-05-05T09:10:32.647Z,79.82
2023-05-05T09:13:02.902Z,81.18
2023-05-05T09:15:33.278Z,82.95
2023-05-05T09:18:05.406Z,83.80
2023-05-05T09:20:37.630Z,84.49
2023-05-05T09:23:17.794Z,85.73
2023-05-05T09:25:48.809Z,85.63
2023-05-05T09:28:20.100Z,86.23
2023-05-05T09:30:50.155Z,85.88
2023-05-05T09:33:32.219Z,84.14
2023-05-05T09:36:02.018Z,85.11
2023-05-05T09:38:34.439Z,84.16
2023-05-05T09:41:05.542Z,83.50
2023-05-05T09:43:52.778Z,82.88
2023-05-05T09:46:22.690Z,83.03
2023-05-05T09:48:52.587Z,82.76
2023-05-05T09:51:32.019Z,82.29
2023-05-05T09:54:04.407Z,82.71
2023-05-05T09:56:41.990Z,82.73
2023-05-05T09:59:12.166Z,82.30
2023-05-05T10:01:43.611Z,82.24
2023-05-05T10:04:26.100Z,80.71
2023-05-05T10:06:55.923Z,79.83
2023-05-05T10:09:31.868Z,80.13
2023-05-05T10:12:02.966Z,79.94
2023-05-05T10:14:35.906Z,79.29
2023-05-05T10:17:06.986Z,77.34
2023-05-05T10:19:38.595Z,76.72
2023-05-05T10:22:12.443Z,75.33
2023-05-05T10:24:50.361Z,74.31
2023-05-05T10:27:22.740Z,74.74
2023-05-05T10:29:58.260Z,73.41
2023-05-05T10:35:11.524Z,73.96
2023-05-05T10:37:41.981Z,74.53
2023-05-05T10:40:20.712Z,74.93
2023-05-05T10:42:54.696Z,75.39
2023-05-05T10:45:26.177Z,73.76
2023-05-05T10:47:59.912Z,72.58
2023-05-05T10:50:33.612Z,72.71
2023-05-05T10:53:13.867Z,73.23
2023-05-05T10:55:53.172Z,72.96
2023-05-05T10:58:46.966Z,72.55
2023-05-05T11:01:32.782Z,72.69
2023-05-05T11:04:21.602Z,71.00
2023-05-05T11:07:21.531Z,71.86
2023-05-05T11:09:58.829Z,71.41
2023-05-05T11:12:31.748Z,70.59
2023-05-05T11:15:31.754Z,70.06
2023-05-05T11:18:05.750Z,69.90
2023-05-05T11:21:07.659Z,69.95
2023-05-05T11:23:38.202Z,69.47
2023-05-05T11:26:08.970Z,69.77
2023-05-05T11:28:58.759Z,69.44
2023-05-05T11:31:28.763Z,69.21
2023-05-05T11:33:58.573Z,68.81
2023-05-05T11:36:42.892Z,68.30
2023-05-05T11:39:23.813Z,68.88
2023-05-05T11:42:25.088Z,68.08
2023-05-05T11:44:57.819Z,68.27
2023-05-05T11:47:32.425Z,68.06
2023-05-05T11:50:19.931Z,67.96
2023-05-05T11:52:50.441Z,67.44
2023-05-05T11:55:25.028Z,67.30
2023-05-05T11:57:56.048Z,67.63
2023-05-05T12:00:37.389Z,68.17
2023-05-05T12:03:08.919Z,68.26
2023-05-05T12:05:38.931Z,68.38
2023-05-05T12:08:08.770Z,68.28
2023-05-05T12:10:38.600Z,66.91
2023-05-05T12:13:20.977Z,66.45
2023-05-05T12:15:53.520Z,67.62
2023-05-05T12:18:23.624Z,67.41
2023-05-05T12:20:53.443Z,66.76
2023-05-05T12:23:23.227Z,66.82
2023-05-05T12:25:53.509Z,66.41
2023-05-05T12:28:23.282Z,65.94
2023-05-05T12:31:01.778Z,65.00
2023-05-05T12:33:31.826Z,66.03
2023-05-05T12:36:01.746Z,64.95
2023-05-05T12:38:31.526Z,64.32
2023-05-05T12:41:01.411Z,61.68
2023-05-05T12:43:33.049Z,61.08
2023-05-05T12:46:10.716Z,61.47
2023-05-05T12:48:46.354Z,63.04
2023-05-05T12:51:20.588Z,64.43
2023-05-05T12:53:51.675Z,63.49
2023-05-05T12:56:35.067Z,64.18
2023-05-05T12:59:05.700Z,63.12
2023-05-05T13:01:39.354Z,62.60
2023-05-05T13:04:10.860Z,63.81
2023-05-05T13:06:41.485Z,63.82
2023-05-05T13:09:12.875Z,64.45
2023-05-05T13:11:42.684Z,64.53
2023-05-05T13:14:12.442Z,65.65
2023-05-05T13:16:44.839Z,64.44
2023-05-05T13:19:14.731Z,64.72
2023-05-05T13:21:44.628Z,63.95
2023-05-05T13:24:28.111Z,63.04
2023-05-05T13:27:04.378Z,61.99
2023-05-05T13:29:35.030Z,60.25
2023-05-05T13:32:08.170Z,61.31
2023-05-05T13:34:39.450Z,63.00
2023-05-05T13:37:09.391Z,62.69
2023-05-05T13:39:39.301Z,63.17
2023-05-05T13:42:09.121Z,62.69
2023-05-05T13:44:38.884Z,62.87
2023-05-05T13:47:11.355Z,62.74
2023-05-05T13:49:41.173Z,63.55
2023-05-05T13:52:11.010Z,64.13
2023-05-05T13:54:40.761Z,63.89
2023-05-05T13:57:11.355Z,62.68
2023-05-05T13:59:41.089Z,63.53
2023-05-05T14:02:13.437Z,64.18
2023-05-05T14:04:43.228Z,63.45
2023-05-05T14:07:13.002Z,64.19
2023-05-05T14:09:42.769Z,65.25
2023-05-05T14:12:12.678Z,64.07
2023-05-05T14:14:42.498Z,64.86
2023-05-05T14:17:14.864Z,64.70
2023-05-05T14:19:44.665Z,64.75
2023-05-05T14:22:14.375Z,63.88
2023-05-05T14:24:44.186Z,63.87
2023-05-05T14:27:13.945Z,64.55
2023-05-05T14:29:43.687Z,64.54
2023-05-05T14:32:16.050Z,63.96
2023-05-05T14:34:47.163Z,64.88
2023-05-05T14:37:18.094Z,65.36
2023-05-05T14:39:47.839Z,65.77
2023-05-05T14:42:17.708Z,66.16
2023-05-05T14:44:47.466Z,66.92
2023-05-05T14:47:19.802Z,67.00
2023-05-05T14:49:49.553Z,67.40
2023-05-05T14:52:19.332Z,67.75
2023-05-05T14:54:49.432Z,67.48
2023-05-05T14:57:19.341Z,68.04
2023-05-05T14:59:52.083Z,68.93
2023-05-05T15:02:24.520Z,69.07
2023-05-05T15:04:54.864Z,68.37
2023-05-05T15:07:28.547Z,68.36
2023-05-05T15:09:58.747Z,68.74
2023-05-05T15:12:28.803Z,69.62
2023-05-05T15:14:58.572Z,69.52
2023-05-05T15:17:31.939Z,69.28
2023-05-05T15:20:01.744Z,70.78
2023-05-05T15:22:31.543Z,71.06
2023-05-05T15:25:01.397Z,73.09
2023-05-05T15:27:31.941Z,73.80
2023-05-05T15:30:01.694Z,79.18
2023-05-05T15:32:34.193Z,83.44
2023-05-05T15:35:03.940Z,89.21
2023-05-05T15:37:33.952Z,91.73
2023-05-05T15:40:05.500Z,95.35
2023-05-05T15:42:35.925Z,99.86
2023-05-05T15:45:08.226Z,100.00
2023-05-05T15:47:40.698Z,100.00
2023-05-05T15:50:11.381Z,100.00
2023-05-05T15:52:41.148Z,100.00
2023-05-05T15:55:12.767Z,100.00
2023-05-05T15:57:42.527Z,100.00
2023-05-05T16:00:13.893Z,100.00
2023-05-05T16:02:47.186Z,100.00
2023-05-05T16:05:17.521Z,100.00
2023-05-05T16:07:47.971Z,100.00
2023-05-05T16:10:19.626Z,100.00
2023-05-05T16:12:50.330Z,100.00
2023-05-05T16:15:20.968Z,100.00
2023-05-05T16:17:54.169Z,100.00
2023-05-05T16:20:24.789Z,100.00
2023-05-05T16:22:55.909Z,100.00
2023-05-05T16:25:26.432Z,100.00
2023-05-05T16:27:57.783Z,100.00
2023-05-05T16:30:28.337Z,100.00
2023-05-05T16:33:01.417Z,100.00
2023-05-05T16:35:31.871Z,99.97
2023-05-05T16:38:02.243Z,100.00
2023-05-05T16:40:32.935Z,100.00
2023-05-05T16:43:03.352Z,100.00
2023-05-05T16:45:33.337Z,100.00
2023-05-05T16:48:08.289Z,99.35
2023-05-05T16:50:38.886Z,99.20
2023-05-05T16:53:09.126Z,98.90
2023-05-05T16:55:39.119Z,99.31
2023-05-05T16:58:08.909Z,100.00
2023-05-05T17:00:38.710Z,100.00
2023-05-05T17:03:11.069Z,99.06
2023-05-05T17:05:40.909Z,98.81
2023-05-05T17:08:11.438Z,98.25
2023-05-05T17:10:41.221Z,98.23
2023-05-05T17:13:11.756Z,97.81
2023-05-05T17:15:41.889Z,98.96
2023-05-05T17:18:14.554Z,99.30
2023-05-05T17:20:44.692Z,99.93
2023-05-05T17:23:14.463Z,100.00
2023-05-05T17:25:44.189Z,99.07
2023-05-05T17:28:14.991Z,99.91
2023-05-05T17:30:45.015Z,99.39
2023-05-05T17:33:21.449Z,99.92
2023-05-05T17:35:51.457Z,98.71
2023-05-05T17:38:21.228Z,98.23
2023-05-05T17:40:51.122Z,98.75
2023-05-05T17:43:20.853Z,98.02
2023-05-05T17:45:50.609Z,98.44
2023-05-05T17:48:22.982Z,97.86
2023-05-05T17:50:52.791Z,96.53
2023-05-05T17:53:23.220Z,96.00
2023-05-05T17:55:52.981Z,96.57
2023-05-05T17:58:22.821Z,97.13
2023-05-05T18:00:52.717Z,98.47
2023-05-05T18:03:25.262Z,98.15
2023-05-05T18:05:55.113Z,98.77
2023-05-05T18:08:25.198Z,98.44
2023-05-05T18:10:56.166Z,98.49
2023-05-05T18:13:25.984Z,97.74
2023-05-05T18:15:55.862Z,96.66
2023-05-05T18:18:28.362Z,95.95
2023-05-05T18:20:58.173Z,96.56
2023-05-05T18:23:28.045Z,97.64
2023-05-05T18:25:57.786Z,98.31
2023-05-05T18:28:27.545Z,97.62
2023-05-05T18:30:57.297Z,97.70
2023-05-05T18:33:29.632Z,98.10
2023-05-05T18:35:59.448Z,99.38
2023-05-05T18:38:29.197Z,98.76
2023-05-05T18:40:58.972Z,99.43
2023-05-05T18:43:28.781Z,99.31
2023-05-05T18:45:58.594Z,98.64
2023-05-05T18:48:31.156Z,99.21
2023-05-05T18:51:03.941Z,99.70
2023-05-05T18:53:34.215Z,100.00
2023-05-05T18:56:04.277Z,100.00
2023-05-05T18:58:34.302Z,100.00
2023-05-05T19:01:04.244Z,100.00
2023-05-05T19:03:36.883Z,100.00
2023-05-05T19:06:08.668Z,100.00
2023-05-05T19:08:38.399Z,100.00
2023-05-05T19:11:08.166Z,100.00
2023-05-05T19:16:08.804Z,100.00
2023-05-05T19:18:41.291Z,100.00
2023-05-05T19:21:11.011Z,100.00
2023-05-05T19:23:41.225Z,100.00
2023-05-05T19:26:11.733Z,100.00
2023-05-05T19:28:41.564Z,100.00
2023-05-05T19:31:11.398Z,100.00
2023-05-05T19:33:45.792Z,100.00
2023-05-05T19:36:15.676Z,100.00
2023-05-05T19:38:46.767Z,100.00
2023-05-05T19:41:17.953Z,100.00
2023-05-05T19:43:50.020Z,100.00
2023-05-05T19:46:22.743Z,100.00
2023-05-05T19:48:55.125Z,100.00
2023-05-05T19:51:25.117Z,100.00
2023-05-05T19:53:54.924Z,100.00
2023-05-05T19:56:24.711Z,100.00
2023-05-05T19:59:01.661Z,100.00
2023-05-05T20:01:33.090Z,100.00
2023-05-05T20:04:06.189Z,100.00
2023-05-05T20:06:36.452Z,100.00
2023-05-05T20:09:06.454Z,100.00
2023-05-05T20:11:36.200Z,100.00
2023-05-05T20:14:05.996Z,100.00
2023-05-05T20:16:35.938Z,99.68
2023-05-05T20:19:08.351Z,99.72
2023-05-05T20:21:38.158Z,100.00
2023-05-05T20:24:09.597Z,100.00
2023-05-05T20:26:39.502Z,100.00
2023-05-05T20:29:09.278Z,99.88
2023-05-05T20:31:39.926Z,99.90
2023-05-05T20:34:12.287Z,99.78
2023-05-05T20:36:42.098Z,100.00
2023-05-05T20:39:18.158Z,100.00
2023-05-05T20:41:48.339Z,100.00
2023-05-05T20:44:18.088Z,100.00
2023-05-05T20:46:47.948Z,100.00
2023-05-05T20:49:20.352Z,100.00
2023-05-05T20:51:50.179Z,100.00
2023-05-05T20:54:19.972Z,100.00
2023-05-05T20:56:49.715Z,100.00
2023-05-05T20:59:19.468Z,100.00
2023-05-05T21:01:49.290Z,100.00
2023-05-05T21:04:21.790Z,100.00
2023-05-05T21:06:51.556Z,100.00
2023-05-05T21:09:21.592Z,100.00
2023-05-05T21:11:51.477Z,100.00
2023-05-05T21:14:21.315Z,100.00
2023-05-05T21:16:51.148Z,100.00
2023-05-05T21:19:24.079Z,100.00
2023-05-05T21:21:53.975Z,100.00
2023-05-05T21:24:23.819Z,100.00
2023-05-05T21:26:53.632Z,100.00
2023-05-05T21:29:23.395Z,100.00
2023-05-05T21:31:53.161Z,100.00
2023-05-05T21:34:25.590Z,100.00
2023-05-05T21:36:55.380Z,100.00
2023-05-05T21:39:25.406Z,100.00
2023-05-05T21:41:55.995Z,100.00
2023-05-05T21:44:25.933Z,100.00
2023-05-05T21:46:55.842Z,100.00
2023-05-05T21:49:28.170Z,100.00
2023-05-05T21:51:57.963Z,100.00
2023-05-05T21:54:27.736Z,100.00
2023-05-05T21:56:57.538Z,100.00
2023-05-05T21:59:27.295Z,100.00
2023-05-05T22:01:57.296Z,100.00
2023-05-05T22:04:29.686Z,100.00
2023-05-05T22:06:59.523Z,100.00
2023-05-05T22:09:29.309Z,100.00
2023-05-05T22:12:00.565Z,100.00
2023-05-05T22:14:30.307Z,100.00
2023-05-05T22:17:00.073Z,100.00
2023-05-05T22:19:32.439Z,100.00
2023-05-05T22:22:02.897Z,100.00
2023-05-05T22:24:33.199Z,100.00
2023-05-05T22:27:03.113Z,100.00
2023-05-05T22:29:32.878Z,100.00
2023-05-05T22:32:02.666Z,100.00
2023-05-05T22:34:37.208Z,100.00
2023-05-05T22:37:07.074Z,100.00
2023-05-05T22:39:36.874Z,100.00
2023-05-05T22:42:06.920Z,100.00
2023-05-05T22:44:36.707Z,100.00
2023-05-05T22:47:07.132Z,100.00
2023-05-05T22:49:39.550Z,100.00
2023-05-05T22:52:09.349Z,100.00
2023-05-05T22:54:39.144Z,100.00
2023-05-05T22:57:08.912Z,100.00
2023-05-05T22:59:38.721Z,100.00
2023-05-05T23:02:08.490Z,100.00
2023-05-05T23:04:41.054Z,100.00
2023-05-05T23:07:10.980Z,100.00
2023-05-05T23:09:41.092Z,100.00
2023-05-05T23:12:10.942Z,100.00
2023-05-05T23:14:41.187Z,100.00
2023-05-05T23:17:10.941Z,100.00
2023-05-05T23:19:43.330Z,100.00
2023-05-05T23:22:13.106Z,100.00
2023-05-05T23:24:42.906Z,100.00
2023-05-05T23:27:12.684Z,100.00
2023-05-05T23:29:42.451Z,100.00
2023-05-05T23:32:12.215Z,100.00
2023-05-05T23:34:44.550Z,100.00
2023-05-05T23:37:15.942Z,100.00
2023-05-05T23:39:45.720Z,100.00
2023-05-05T23:42:15.460Z,100.00
2023-05-05T23:44:45.189Z,100.00
2023-05-05T23:47:14.931Z,100.00
2023-05-05T23:49:47.341Z,100.00
2023-05-05T23:52:17.063Z,100.00
2023-05-05T23:54:47.733Z,100.00
2023-05-05T23:57:17.641Z,100.00
2023-05-05T23:59:47.383Z,100.00
